sensor_id;sensor_type;location;lat;lon;timestamp;temperature;humidity
3699;DHT22;1865;50.918;7.092;2022-12-10T00:02:08;3.80;53.90
3699;DHT22;1865;50.918;7.092;2022-12-10T00:04:33;3.70;53.80
3699;DHT22;1865;50.918;7.092;2022-12-10T00:06:58;3.70;54.00
3699;DHT22;1865;50.918;7.092;2022-12-10T00:09:24;3.70;54.10
3699;DHT22;1865;50.918;7.092;2022-12-10T00:11:49;3.70;54.50
3699;DHT22;1865;50.918;7.092;2022-12-10T00:14:15;3.70;53.60
3699;DHT22;1865;50.918;7.092;2022-12-10T00:16:41;3.70;53.90
3699;DHT22;1865;50.918;7.092;2022-12-10T00:19:07;3.70;53.40
3699;DHT22;1865;50.918;7.092;2022-12-10T00:21:33;3.70;53.80
3699;DHT22;1865;50.918;7.092;2022-12-10T00:24:00;3.80;53.50
3699;DHT22;1865;50.918;7.092;2022-12-10T00:26:34;3.80;53.60
3699;DHT22;1865;50.918;7.092;2022-12-10T00:29:02;3.80;53.00
3699;DHT22;1865;50.918;7.092;2022-12-10T00:31:31;3.90;52.90
3699;DHT22;1865;50.918;7.092;2022-12-10T00:33:59;3.60;52.40
3699;DHT22;1865;50.918;7.092;2022-12-10T00:36:30;3.50;53.50
3699;DHT22;1865;50.918;7.092;2022-12-10T00:38:57;3.40;53.20
3699;DHT22;1865;50.918;7.092;2022-12-10T00:41:23;3.50;54.10
3699;DHT22;1865;50.918;7.092;2022-12-10T00:43:48;3.50;53.40
3699;DHT22;1865;50.918;7.092;2022-12-10T00:46:15;3.50;52.90
3699;DHT22;1865;50.918;7.092;2022-12-10T00:48:42;3.50;52.80
3699;DHT22;1865;50.918;7.092;2022-12-10T00:51:14;3.30;52.80
3699;DHT22;1865;50.918;7.092;2022-12-10T00:53:41;3.30;53.50
3699;DHT22;1865;50.918;7.092;2022-12-10T00:56:08;3.40;53.80
3699;DHT22;1865;50.918;7.092;2022-12-10T00:58:35;3.50;53.40
3699;DHT22;1865;50.918;7.092;2022-12-10T01:03:36;3.20;53.60
3699;DHT22;1865;50.918;7.092;2022-12-10T01:08:47;3.30;53.90
3699;DHT22;1865;50.918;7.092;2022-12-10T01:11:15;3.40;53.50
3699;DHT22;1865;50.918;7.092;2022-12-10T01:13:41;3.30;53.60
3699;DHT22;1865;50.918;7.092;2022-12-10T01:16:09;3.30;53.20
3699;DHT22;1865;50.918;7.092;2022-12-10T01:18:35;3.40;53.20
3699;DHT22;1865;50.918;7.092;2022-12-10T01:21:06;3.30;53.10
3699;DHT22;1865;50.918;7.092;2022-12-10T01:23:33;3.40;53.10
3699;DHT22;1865;50.918;7.092;2022-12-10T01:26:01;3.60;52.40
3699;DHT22;1865;50.918;7.092;2022-12-10T01:28:28;3.60;52.80
3699;DHT22;1865;50.918;7.092;2022-12-10T01:30:54;3.30;53.10
3699;DHT22;1865;50.918;7.092;2022-12-10T01:33:19;3.30;53.00
3699;DHT22;1865;50.918;7.092;2022-12-10T01:35:45;3.30;52.70
3699;DHT22;1865;50.918;7.092;2022-12-10T01:38:10;3.30;52.90
3699;DHT22;1865;50.918;7.092;2022-12-10T01:40:38;3.30;52.60
3699;DHT22;1865;50.918;7.092;2022-12-10T01:43:04;3.20;52.20
3699;DHT22;1865;50.918;7.092;2022-12-10T01:45:30;3.20;53.00
3699;DHT22;1865;50.918;7.092;2022-12-10T01:47:56;3.10;53.10
3699;DHT22;1865;50.918;7.092;2022-12-10T01:50:21;3.20;53.50
3699;DHT22;1865;50.918;7.092;2022-12-10T01:52:47;3.30;53.20
3699;DHT22;1865;50.918;7.092;2022-12-10T01:58:03;3.20;51.80
3699;DHT22;1865;50.918;7.092;2022-12-10T02:00:30;3.10;52.40
3699;DHT22;1865;50.918;7.092;2022-12-10T02:03:06;3.40;52.90
3699;DHT22;1865;50.918;7.092;2022-12-10T02:05:41;3.00;52.10
3699;DHT22;1865;50.918;7.092;2022-12-10T02:10:59;2.90;52.50
3699;DHT22;1865;50.918;7.092;2022-12-10T02:13:42;2.90;52.80
3699;DHT22;1865;50.918;7.092;2022-12-10T02:16:16;2.80;52.90
3699;DHT22;1865;50.918;7.092;2022-12-10T02:18:49;2.80;52.90
3699;DHT22;1865;50.918;7.092;2022-12-10T02:21:21;2.90;53.20
3699;DHT22;1865;50.918;7.092;2022-12-10T02:23:55;3.00;52.40
3699;DHT22;1865;50.918;7.092;2022-12-10T02:31:40;3.00;52.60
3699;DHT22;1865;50.918;7.092;2022-12-10T02:34:08;3.00;52.20
3699;DHT22;1865;50.918;7.092;2022-12-10T02:36:37;3.00;52.10
3699;DHT22;1865;50.918;7.092;2022-12-10T02:39:07;3.00;52.80
3699;DHT22;1865;50.918;7.092;2022-12-10T02:41:35;3.10;52.60
3699;DHT22;1865;50.918;7.092;2022-12-10T02:44:05;3.00;52.40
3699;DHT22;1865;50.918;7.092;2022-12-10T02:46:32;3.00;52.00
3699;DHT22;1865;50.918;7.092;2022-12-10T02:49:02;2.90;52.30
3699;DHT22;1865;50.918;7.092;2022-12-10T02:51:28;2.90;52.50
3699;DHT22;1865;50.918;7.092;2022-12-10T02:54:06;2.90;52.10
3699;DHT22;1865;50.918;7.092;2022-12-10T02:56:36;2.90;52.10
3699;DHT22;1865;50.918;7.092;2022-12-10T02:59:19;2.80;52.30
3699;DHT22;1865;50.918;7.092;2022-12-10T03:02:04;2.70;52.10
3699;DHT22;1865;50.918;7.092;2022-12-10T03:04:40;2.70;53.00
3699;DHT22;1865;50.918;7.092;2022-12-10T03:07:16;2.70;53.00
3699;DHT22;1865;50.918;7.092;2022-12-10T03:09:55;2.80;53.30
3699;DHT22;1865;50.918;7.092;2022-12-10T03:12:31;2.90;52.90
3699;DHT22;1865;50.918;7.092;2022-12-10T03:14:59;3.00;52.60
3699;DHT22;1865;50.918;7.092;2022-12-10T03:17:27;3.00;52.70
3699;DHT22;1865;50.918;7.092;2022-12-10T03:19:55;3.10;52.50
3699;DHT22;1865;50.918;7.092;2022-12-10T03:22:21;3.00;52.40
3699;DHT22;1865;50.918;7.092;2022-12-10T03:24:47;3.00;53.00
3699;DHT22;1865;50.918;7.092;2022-12-10T03:27:14;3.10;53.80
3699;DHT22;1865;50.918;7.092;2022-12-10T03:29:47;3.20;52.90
3699;DHT22;1865;50.918;7.092;2022-12-10T03:32:15;3.20;52.40
3699;DHT22;1865;50.918;7.092;2022-12-10T03:34:43;3.20;52.10
3699;DHT22;1865;50.918;7.092;2022-12-10T03:37:09;3.20;51.70
3699;DHT22;1865;50.918;7.092;2022-12-10T03:39:36;3.10;52.20
3699;DHT22;1865;50.918;7.092;2022-12-10T03:42:04;3.10;52.30
3699;DHT22;1865;50.918;7.092;2022-12-10T03:44:35;3.30;52.40
3699;DHT22;1865;50.918;7.092;2022-12-10T03:47:03;3.30;51.70
3699;DHT22;1865;50.918;7.092;2022-12-10T03:49:29;3.30;52.50
3699;DHT22;1865;50.918;7.092;2022-12-10T03:51:54;3.40;52.20
3699;DHT22;1865;50.918;7.092;2022-12-10T03:54:20;3.40;52.00
3699;DHT22;1865;50.918;7.092;2022-12-10T03:56:45;3.40;52.80
3699;DHT22;1865;50.918;7.092;2022-12-10T03:59:11;3.50;52.90
3699;DHT22;1865;50.918;7.092;2022-12-10T04:01:37;3.70;52.50
3699;DHT22;1865;50.918;7.092;2022-12-10T04:04:04;3.60;52.50
3699;DHT22;1865;50.918;7.092;2022-12-10T04:06:30;3.60;51.90
3699;DHT22;1865;50.918;7.092;2022-12-10T04:08:56;3.60;52.40
3699;DHT22;1865;50.918;7.092;2022-12-10T04:11:21;3.70;52.40
3699;DHT22;1865;50.918;7.092;2022-12-10T04:13:48;3.60;51.90
3699;DHT22;1865;50.918;7.092;2022-12-10T04:16:33;3.60;52.60
3699;DHT22;1865;50.918;7.092;2022-12-10T04:19:04;3.70;52.50
3699;DHT22;1865;50.918;7.092;2022-12-10T04:21:32;3.70;52.40
3699;DHT22;1865;50.918;7.092;2022-12-10T04:24:19;3.60;51.50
3699;DHT22;1865;50.918;7.092;2022-12-10T04:27:06;3.70;53.00
3699;DHT22;1865;50.918;7.092;2022-12-10T04:29:33;3.70;52.30
3699;DHT22;1865;50.918;7.092;2022-12-10T04:31:59;3.80;52.20
3699;DHT22;1865;50.918;7.092;2022-12-10T04:34:25;3.70;52.50
3699;DHT22;1865;50.918;7.092;2022-12-10T04:36:51;3.70;52.50
3699;DHT22;1865;50.918;7.092;2022-12-10T04:39:17;3.80;52.50
3699;DHT22;1865;50.918;7.092;2022-12-10T04:41:45;3.80;52.10
3699;DHT22;1865;50.918;7.092;2022-12-10T04:44:11;3.90;52.50
3699;DHT22;1865;50.918;7.092;2022-12-10T04:46:37;3.90;52.70
3699;DHT22;1865;50.918;7.092;2022-12-10T04:49:03;3.90;52.40
3699;DHT22;1865;50.918;7.092;2022-12-10T04:51:30;4.00;52.30
3699;DHT22;1865;50.918;7.092;2022-12-10T04:53:55;4.00;52.30
3699;DHT22;1865;50.918;7.092;2022-12-10T04:56:21;4.00;51.90
3699;DHT22;1865;50.918;7.092;2022-12-10T04:58:46;4.00;51.90
3699;DHT22;1865;50.918;7.092;2022-12-10T05:01:12;4.00;51.90
3699;DHT22;1865;50.918;7.092;2022-12-10T05:03:38;4.00;52.20
3699;DHT22;1865;50.918;7.092;2022-12-10T05:06:07;4.00;52.00
3699;DHT22;1865;50.918;7.092;2022-12-10T05:08:34;4.00;52.60
3699;DHT22;1865;50.918;7.092;2022-12-10T05:11:09;4.00;52.10
3699;DHT22;1865;50.918;7.092;2022-12-10T05:13:36;4.00;52.60
3699;DHT22;1865;50.918;7.092;2022-12-10T05:16:02;4.40;52.70
3699;DHT22;1865;50.918;7.092;2022-12-10T05:18:28;4.20;51.80
3699;DHT22;1865;50.918;7.092;2022-12-10T05:20:54;4.20;51.90
3699;DHT22;1865;50.918;7.092;2022-12-10T05:23:19;4.10;51.90
3699;DHT22;1865;50.918;7.092;2022-12-10T05:26:25;4.10;52.00
3699;DHT22;1865;50.918;7.092;2022-12-10T05:28:53;4.10;51.80
3699;DHT22;1865;50.918;7.092;2022-12-10T05:31:27;4.00;52.20
3699;DHT22;1865;50.918;7.092;2022-12-10T05:33:54;4.10;52.10
3699;DHT22;1865;50.918;7.092;2022-12-10T05:36:23;4.30;51.80
3699;DHT22;1865;50.918;7.092;2022-12-10T05:38:49;4.10;52.50
3699;DHT22;1865;50.918;7.092;2022-12-10T05:41:17;4.00;51.70
3699;DHT22;1865;50.918;7.092;2022-12-10T05:43:43;4.00;52.40
3699;DHT22;1865;50.918;7.092;2022-12-10T05:46:12;3.90;52.10
3699;DHT22;1865;50.918;7.092;2022-12-10T05:48:39;3.90;52.40
3699;DHT22;1865;50.918;7.092;2022-12-10T05:51:12;4.00;52.50
3699;DHT22;1865;50.918;7.092;2022-12-10T05:53:38;4.00;52.00
3699;DHT22;1865;50.918;7.092;2022-12-10T05:56:07;3.90;51.70
3699;DHT22;1865;50.918;7.092;2022-12-10T05:58:33;4.00;52.90
3699;DHT22;1865;50.918;7.092;2022-12-10T06:00:59;4.00;52.30
3699;DHT22;1865;50.918;7.092;2022-12-10T06:03:27;4.00;51.80
3699;DHT22;1865;50.918;7.092;2022-12-10T06:05:53;3.90;52.30
3699;DHT22;1865;50.918;7.092;2022-12-10T06:08:19;4.00;52.90
3699;DHT22;1865;50.918;7.092;2022-12-10T06:10:44;3.90;52.60
3699;DHT22;1865;50.918;7.092;2022-12-10T06:13:10;3.90;52.90
3699;DHT22;1865;50.918;7.092;2022-12-10T06:15:39;3.90;53.40
3699;DHT22;1865;50.918;7.092;2022-12-10T06:18:05;3.90;53.10
3699;DHT22;1865;50.918;7.092;2022-12-10T06:20:30;4.40;53.40
3699;DHT22;1865;50.918;7.092;2022-12-10T06:22:56;4.10;51.90
3699;DHT22;1865;50.918;7.092;2022-12-10T06:25:21;4.10;52.80
3699;DHT22;1865;50.918;7.092;2022-12-10T06:27:47;4.00;52.30
3699;DHT22;1865;50.918;7.092;2022-12-10T06:30:13;4.10;52.90
3699;DHT22;1865;50.918;7.092;2022-12-10T06:32:38;4.00;53.10
3699;DHT22;1865;50.918;7.092;2022-12-10T06:35:05;4.10;53.10
3699;DHT22;1865;50.918;7.092;2022-12-10T06:37:30;4.20;52.30
3699;DHT22;1865;50.918;7.092;2022-12-10T06:39:56;4.10;52.30
3699;DHT22;1865;50.918;7.092;2022-12-10T06:42:21;4.10;52.90
3699;DHT22;1865;50.918;7.092;2022-12-10T06:44:47;4.20;53.00
3699;DHT22;1865;50.918;7.092;2022-12-10T06:47:13;4.20;52.50
3699;DHT22;1865;50.918;7.092;2022-12-10T06:49:39;4.20;52.20
3699;DHT22;1865;50.918;7.092;2022-12-10T06:52:04;4.20;53.10
3699;DHT22;1865;50.918;7.092;2022-12-10T06:54:30;4.30;52.90
3699;DHT22;1865;50.918;7.092;2022-12-10T06:56:56;4.20;52.40
3699;DHT22;1865;50.918;7.092;2022-12-10T06:59:22;4.20;52.70
3699;DHT22;1865;50.918;7.092;2022-12-10T07:01:48;4.30;52.90
3699;DHT22;1865;50.918;7.092;2022-12-10T07:04:13;4.30;52.60
3699;DHT22;1865;50.918;7.092;2022-12-10T07:06:39;4.40;52.40
3699;DHT22;1865;50.918;7.092;2022-12-10T07:09:05;4.30;52.10
3699;DHT22;1865;50.918;7.092;2022-12-10T07:11:31;4.30;52.50
3699;DHT22;1865;50.918;7.092;2022-12-10T07:13:57;4.40;52.50
3699;DHT22;1865;50.918;7.092;2022-12-10T07:16:28;4.30;52.10
3699;DHT22;1865;50.918;7.092;2022-12-10T07:18:55;4.30;52.40
3699;DHT22;1865;50.918;7.092;2022-12-10T07:23:56;4.40;52.20
3699;DHT22;1865;50.918;7.092;2022-12-10T07:26:24;4.50;52.10
3699;DHT22;1865;50.918;7.092;2022-12-10T07:28:50;4.40;51.80
3699;DHT22;1865;50.918;7.092;2022-12-10T07:31:16;4.50;51.80
3699;DHT22;1865;50.918;7.092;2022-12-10T07:33:41;4.50;51.60
3699;DHT22;1865;50.918;7.092;2022-12-10T07:36:11;4.50;51.60
3699;DHT22;1865;50.918;7.092;2022-12-10T07:38:38;4.40;51.40
3699;DHT22;1865;50.918;7.092;2022-12-10T07:41:05;4.30;51.80
3699;DHT22;1865;50.918;7.092;2022-12-10T07:43:33;4.30;52.50
3699;DHT22;1865;50.918;7.092;2022-12-10T07:46:10;4.30;52.00
3699;DHT22;1865;50.918;7.092;2022-12-10T07:48:37;4.30;52.00
3699;DHT22;1865;50.918;7.092;2022-12-10T07:51:04;4.10;52.50
3699;DHT22;1865;50.918;7.092;2022-12-10T07:53:29;4.10;54.10
3699;DHT22;1865;50.918;7.092;2022-12-10T07:55:55;4.30;53.20
3699;DHT22;1865;50.918;7.092;2022-12-10T07:58:20;4.60;53.00
3699;DHT22;1865;50.918;7.092;2022-12-10T08:00:46;4.40;52.80
3699;DHT22;1865;50.918;7.092;2022-12-10T08:03:11;4.40;52.10
3699;DHT22;1865;50.918;7.092;2022-12-10T08:05:38;4.30;52.50
3699;DHT22;1865;50.918;7.092;2022-12-10T08:08:03;4.40;52.70
3699;DHT22;1865;50.918;7.092;2022-12-10T08:10:29;4.50;52.30
3699;DHT22;1865;50.918;7.092;2022-12-10T08:12:54;4.50;51.90
3699;DHT22;1865;50.918;7.092;2022-12-10T08:15:20;4.40;51.40
3699;DHT22;1865;50.918;7.092;2022-12-10T08:17:46;4.40;52.40
3699;DHT22;1865;50.918;7.092;2022-12-10T08:20:11;4.40;52.40
3699;DHT22;1865;50.918;7.092;2022-12-10T08:22:37;4.50;52.70
3699;DHT22;1865;50.918;7.092;2022-12-10T08:25:03;4.60;52.70
3699;DHT22;1865;50.918;7.092;2022-12-10T08:27:29;4.70;52.30
3699;DHT22;1865;50.918;7.092;2022-12-10T08:29:54;4.70;52.00
3699;DHT22;1865;50.918;7.092;2022-12-10T08:32:20;4.60;51.10
3699;DHT22;1865;50.918;7.092;2022-12-10T08:34:45;4.60;52.20
3699;DHT22;1865;50.918;7.092;2022-12-10T08:37:11;4.80;52.50
3699;DHT22;1865;50.918;7.092;2022-12-10T08:39:36;4.90;51.70
3699;DHT22;1865;50.918;7.092;2022-12-10T08:42:02;5.10;52.10
3699;DHT22;1865;50.918;7.092;2022-12-10T08:44:27;4.80;52.40
3699;DHT22;1865;50.918;7.092;2022-12-10T08:46:53;4.90;52.00
3699;DHT22;1865;50.918;7.092;2022-12-10T08:49:19;4.90;51.60
3699;DHT22;1865;50.918;7.092;2022-12-10T08:51:44;4.70;51.40
3699;DHT22;1865;50.918;7.092;2022-12-10T08:54:10;4.80;51.90
3699;DHT22;1865;50.918;7.092;2022-12-10T08:56:35;4.70;51.80
3699;DHT22;1865;50.918;7.092;2022-12-10T08:59:01;4.90;52.60
3699;DHT22;1865;50.918;7.092;2022-12-10T09:01:26;4.80;51.60
3699;DHT22;1865;50.918;7.092;2022-12-10T09:03:52;4.80;52.00
3699;DHT22;1865;50.918;7.092;2022-12-10T09:06:21;4.80;52.20
3699;DHT22;1865;50.918;7.092;2022-12-10T09:08:47;4.80;52.30
3699;DHT22;1865;50.918;7.092;2022-12-10T09:11:19;5.00;52.10
3699;DHT22;1865;50.918;7.092;2022-12-10T09:13:44;5.10;51.70
3699;DHT22;1865;50.918;7.092;2022-12-10T09:16:11;5.20;51.50
3699;DHT22;1865;50.918;7.092;2022-12-10T09:18:36;5.30;51.30
3699;DHT22;1865;50.918;7.092;2022-12-10T09:21:10;5.30;51.10
3699;DHT22;1865;50.918;7.092;2022-12-10T09:23:38;5.50;50.70
3699;DHT22;1865;50.918;7.092;2022-12-10T09:26:09;5.30;49.70
3699;DHT22;1865;50.918;7.092;2022-12-10T09:28:35;5.30;51.20
3699;DHT22;1865;50.918;7.092;2022-12-10T09:31:01;5.40;51.10
3699;DHT22;1865;50.918;7.092;2022-12-10T09:33:28;5.30;49.60
3699;DHT22;1865;50.918;7.092;2022-12-10T09:35:54;5.20;51.30
3699;DHT22;1865;50.918;7.092;2022-12-10T09:38:20;5.50;51.10
3699;DHT22;1865;50.918;7.092;2022-12-10T09:41:00;5.70;50.20
3699;DHT22;1865;50.918;7.092;2022-12-10T09:43:41;5.80;49.40
3699;DHT22;1865;50.918;7.092;2022-12-10T09:49:16;5.70;49.40
3699;DHT22;1865;50.918;7.092;2022-12-10T09:51:45;5.80;49.40
3699;DHT22;1865;50.918;7.092;2022-12-10T09:54:22;5.90;48.40
3699;DHT22;1865;50.918;7.092;2022-12-10T09:56:50;5.80;48.90
3699;DHT22;1865;50.918;7.092;2022-12-10T09:59:24;5.70;48.50
3699;DHT22;1865;50.918;7.092;2022-12-10T10:02:38;5.80;49.00
3699;DHT22;1865;50.918;7.092;2022-12-10T10:07:34;5.80;49.40
3699;DHT22;1865;50.918;7.092;2022-12-10T10:10:05;5.90;48.90
3699;DHT22;1865;50.918;7.092;2022-12-10T10:12:33;5.90;49.30
3699;DHT22;1865;50.918;7.092;2022-12-10T10:15:12;5.80;48.90
3699;DHT22;1865;50.918;7.092;2022-12-10T10:17:39;5.90;49.70
3699;DHT22;1865;50.918;7.092;2022-12-10T10:20:05;5.90;49.50
3699;DHT22;1865;50.918;7.092;2022-12-10T10:22:31;6.00;49.70
3699;DHT22;1865;50.918;7.092;2022-12-10T10:24:57;6.10;49.40
3699;DHT22;1865;50.918;7.092;2022-12-10T10:27:30;6.10;47.80
3699;DHT22;1865;50.918;7.092;2022-12-10T10:29:58;6.20;48.10
3699;DHT22;1865;50.918;7.092;2022-12-10T10:35:06;6.50;47.70
3699;DHT22;1865;50.918;7.092;2022-12-10T10:37:41;6.20;45.60
3699;DHT22;1865;50.918;7.092;2022-12-10T10:40:30;6.00;46.30
3699;DHT22;1865;50.918;7.092;2022-12-10T10:42:58;6.00;47.30
3699;DHT22;1865;50.918;7.092;2022-12-10T10:45:37;6.00;46.70
3699;DHT22;1865;50.918;7.092;2022-12-10T10:48:12;6.00;47.00
3699;DHT22;1865;50.918;7.092;2022-12-10T10:55:51;5.90;47.10
3699;DHT22;1865;50.918;7.092;2022-12-10T10:58:19;5.90;47.80
3699;DHT22;1865;50.918;7.092;2022-12-10T11:01:01;6.00;48.50
3699;DHT22;1865;50.918;7.092;2022-12-10T11:03:28;6.10;47.40
3699;DHT22;1865;50.918;7.092;2022-12-10T11:05:56;6.30;47.60
3699;DHT22;1865;50.918;7.092;2022-12-10T11:08:24;6.10;48.40
3699;DHT22;1865;50.918;7.092;2022-12-10T11:10:56;6.30;48.70
3699;DHT22;1865;50.918;7.092;2022-12-10T11:13:25;6.10;48.90
3699;DHT22;1865;50.918;7.092;2022-12-10T11:16:00;6.10;49.70
3699;DHT22;1865;50.918;7.092;2022-12-10T11:18:31;6.00;48.40
3699;DHT22;1865;50.918;7.092;2022-12-10T11:21:20;6.00;48.10
3699;DHT22;1865;50.918;7.092;2022-12-10T11:23:52;6.00;48.00
3699;DHT22;1865;50.918;7.092;2022-12-10T11:26:37;5.90;48.20
3699;DHT22;1865;50.918;7.092;2022-12-10T11:29:42;5.90;48.30
3699;DHT22;1865;50.918;7.092;2022-12-10T11:35:01;6.10;47.20
3699;DHT22;1865;50.918;7.092;2022-12-10T11:40:32;6.10;47.50
3699;DHT22;1865;50.918;7.092;2022-12-10T11:48:47;6.20;47.30
3699;DHT22;1865;50.918;7.092;2022-12-10T11:51:23;6.30;47.00
3699;DHT22;1865;50.918;7.092;2022-12-10T11:56:49;6.30;47.60
3699;DHT22;1865;50.918;7.092;2022-12-10T11:59:25;6.30;47.50
3699;DHT22;1865;50.918;7.092;2022-12-10T12:02:30;6.40;46.60
3699;DHT22;1865;50.918;7.092;2022-12-10T12:05:07;6.30;47.00
3699;DHT22;1865;50.918;7.092;2022-12-10T12:07:59;6.20;46.20
3699;DHT22;1865;50.918;7.092;2022-12-10T12:10:49;6.10;47.10
3699;DHT22;1865;50.918;7.092;2022-12-10T12:13:24;6.10;47.00
3699;DHT22;1865;50.918;7.092;2022-12-10T12:16:03;6.00;46.60
3699;DHT22;1865;50.918;7.092;2022-12-10T12:18:53;6.10;47.20
3699;DHT22;1865;50.918;7.092;2022-12-10T12:21:21;6.10;47.20
3699;DHT22;1865;50.918;7.092;2022-12-10T12:23:51;6.10;47.10
3699;DHT22;1865;50.918;7.092;2022-12-10T12:26:29;6.10;47.10
3699;DHT22;1865;50.918;7.092;2022-12-10T12:29:13;6.10;46.90
3699;DHT22;1865;50.918;7.092;2022-12-10T12:31:44;6.10;46.90
3699;DHT22;1865;50.918;7.092;2022-12-10T12:36:41;6.10;46.70
3699;DHT22;1865;50.918;7.092;2022-12-10T12:39:18;6.10;46.30
3699;DHT22;1865;50.918;7.092;2022-12-10T12:41:54;6.00;46.70
3699;DHT22;1865;50.918;7.092;2022-12-10T12:44:45;6.10;47.10
3699;DHT22;1865;50.918;7.092;2022-12-10T12:49:40;6.10;46.50
3699;DHT22;1865;50.918;7.092;2022-12-10T12:54:57;6.30;47.40
3699;DHT22;1865;50.918;7.092;2022-12-10T13:00:10;6.40;46.80
3699;DHT22;1865;50.918;7.092;2022-12-10T13:02:52;6.50;46.60
3699;DHT22;1865;50.918;7.092;2022-12-10T13:05:31;6.50;46.30
3699;DHT22;1865;50.918;7.092;2022-12-10T13:10:57;6.20;45.90
3699;DHT22;1865;50.918;7.092;2022-12-10T13:13:32;6.20;47.30
3699;DHT22;1865;50.918;7.092;2022-12-10T13:29:44;6.30;46.60
3699;DHT22;1865;50.918;7.092;2022-12-10T13:32:19;6.20;46.80
3699;DHT22;1865;50.918;7.092;2022-12-10T13:34:46;6.40;47.30
3699;DHT22;1865;50.918;7.092;2022-12-10T13:37:30;6.70;46.90
3699;DHT22;1865;50.918;7.092;2022-12-10T13:42:44;6.30;46.60
3699;DHT22;1865;50.918;7.092;2022-12-10T13:45:31;6.40;46.90
3699;DHT22;1865;50.918;7.092;2022-12-10T13:50:52;6.20;46.90
3699;DHT22;1865;50.918;7.092;2022-12-10T13:59:30;6.50;46.70
3699;DHT22;1865;50.918;7.092;2022-12-10T14:02:22;6.50;46.40
3699;DHT22;1865;50.918;7.092;2022-12-10T14:07:38;6.40;46.50
3699;DHT22;1865;50.918;7.092;2022-12-10T14:10:13;6.50;47.20
3699;DHT22;1865;50.918;7.092;2022-12-10T14:12:41;6.60;46.50
3699;DHT22;1865;50.918;7.092;2022-12-10T14:15:19;6.40;46.50
3699;DHT22;1865;50.918;7.092;2022-12-10T14:17:50;6.40;47.10
3699;DHT22;1865;50.918;7.092;2022-12-10T14:20:18;6.40;48.00
3699;DHT22;1865;50.918;7.092;2022-12-10T14:22:47;6.30;47.40
3699;DHT22;1865;50.918;7.092;2022-12-10T14:25:18;6.20;47.60
3699;DHT22;1865;50.918;7.092;2022-12-10T14:27:47;6.00;47.50
3699;DHT22;1865;50.918;7.092;2022-12-10T14:30:21;6.00;48.00
3699;DHT22;1865;50.918;7.092;2022-12-10T14:32:47;6.10;48.00
3699;DHT22;1865;50.918;7.092;2022-12-10T14:35:16;6.10;48.70
3699;DHT22;1865;50.918;7.092;2022-12-10T14:37:46;6.10;47.80
3699;DHT22;1865;50.918;7.092;2022-12-10T14:40:24;6.10;47.40
3699;DHT22;1865;50.918;7.092;2022-12-10T14:42:55;6.00;48.00
3699;DHT22;1865;50.918;7.092;2022-12-10T14:45:22;6.00;47.50
3699;DHT22;1865;50.918;7.092;2022-12-10T14:47:48;6.20;48.00
3699;DHT22;1865;50.918;7.092;2022-12-10T14:50:16;6.20;47.60
3699;DHT22;1865;50.918;7.092;2022-12-10T14:52:45;6.20;47.50
3699;DHT22;1865;50.918;7.092;2022-12-10T14:55:15;6.30;47.40
3699;DHT22;1865;50.918;7.092;2022-12-10T14:57:49;6.20;47.50
3699;DHT22;1865;50.918;7.092;2022-12-10T15:00:21;6.10;47.90
3699;DHT22;1865;50.918;7.092;2022-12-10T15:02:52;6.10;48.30
3699;DHT22;1865;50.918;7.092;2022-12-10T15:05:25;6.00;47.30
3699;DHT22;1865;50.918;7.092;2022-12-10T15:08:00;6.10;48.60
3699;DHT22;1865;50.918;7.092;2022-12-10T15:10:31;6.10;47.80
3699;DHT22;1865;50.918;7.092;2022-12-10T15:12:57;6.10;47.70
3699;DHT22;1865;50.918;7.092;2022-12-10T15:18:31;5.90;47.20
3699;DHT22;1865;50.918;7.092;2022-12-10T15:20:51;6.00;48.10
3699;DHT22;1865;50.918;7.092;2022-12-10T15:23:38;6.10;47.60
3699;DHT22;1865;50.918;7.092;2022-12-10T15:26:21;6.00;48.20
3699;DHT22;1865;50.918;7.092;2022-12-10T15:28:48;5.90;47.60
3699;DHT22;1865;50.918;7.092;2022-12-10T15:31:35;5.90;47.80
3699;DHT22;1865;50.918;7.092;2022-12-10T15:34:10;5.90;48.10
3699;DHT22;1865;50.918;7.092;2022-12-10T15:36:51;6.00;48.10
3699;DHT22;1865;50.918;7.092;2022-12-10T15:39:29;6.00;48.20
3699;DHT22;1865;50.918;7.092;2022-12-10T15:41:57;6.00;48.00
3699;DHT22;1865;50.918;7.092;2022-12-10T15:44:34;6.00;47.70
3699;DHT22;1865;50.918;7.092;2022-12-10T15:47:10;5.90;47.10
3699;DHT22;1865;50.918;7.092;2022-12-10T15:49:38;5.80;48.10
3699;DHT22;1865;50.918;7.092;2022-12-10T15:52:04;5.70;47.70
3699;DHT22;1865;50.918;7.092;2022-12-10T15:54:37;5.70;47.70
3699;DHT22;1865;50.918;7.092;2022-12-10T15:57:30;5.60;47.60
3699;DHT22;1865;50.918;7.092;2022-12-10T15:59:58;5.60;48.30
3699;DHT22;1865;50.918;7.092;2022-12-10T16:02:49;5.80;48.20
3699;DHT22;1865;50.918;7.092;2022-12-10T16:07:51;5.70;47.50
3699;DHT22;1865;50.918;7.092;2022-12-10T16:10:19;5.70;47.40
3699;DHT22;1865;50.918;7.092;2022-12-10T16:12:45;5.60;47.10
3699;DHT22;1865;50.918;7.092;2022-12-10T16:15:22;5.60;48.10
3699;DHT22;1865;50.918;7.092;2022-12-10T16:17:50;5.60;47.20
3699;DHT22;1865;50.918;7.092;2022-12-10T16:20:34;5.60;48.00
3699;DHT22;1865;50.918;7.092;2022-12-10T16:22:59;5.70;47.80
3699;DHT22;1865;50.918;7.092;2022-12-10T16:25:28;5.80;47.80
3699;DHT22;1865;50.918;7.092;2022-12-10T16:27:54;5.70;48.30
3699;DHT22;1865;50.918;7.092;2022-12-10T16:30:25;5.70;48.20
3699;DHT22;1865;50.918;7.092;2022-12-10T16:32:53;5.80;47.90
3699;DHT22;1865;50.918;7.092;2022-12-10T16:35:20;5.80;47.50
3699;DHT22;1865;50.918;7.092;2022-12-10T16:37:47;5.80;48.30
3699;DHT22;1865;50.918;7.092;2022-12-10T16:40:23;5.80;47.90
3699;DHT22;1865;50.918;7.092;2022-12-10T16:42:49;5.80;47.40
3699;DHT22;1865;50.918;7.092;2022-12-10T16:45:29;5.70;47.30
3699;DHT22;1865;50.918;7.092;2022-12-10T16:47:54;5.60;47.70
3699;DHT22;1865;50.918;7.092;2022-12-10T16:50:20;5.60;48.40
3699;DHT22;1865;50.918;7.092;2022-12-10T16:52:46;5.50;48.20
3699;DHT22;1865;50.918;7.092;2022-12-10T16:55:15;5.50;48.40
3699;DHT22;1865;50.918;7.092;2022-12-10T16:57:41;5.50;48.00
3699;DHT22;1865;50.918;7.092;2022-12-10T17:00:10;5.60;47.70
3699;DHT22;1865;50.918;7.092;2022-12-10T17:02:36;5.50;47.30
3699;DHT22;1865;50.918;7.092;2022-12-10T17:05:02;5.50;48.10
3699;DHT22;1865;50.918;7.092;2022-12-10T17:07:27;5.70;48.20
3699;DHT22;1865;50.918;7.092;2022-12-10T17:09:53;5.60;47.60
3699;DHT22;1865;50.918;7.092;2022-12-10T17:12:18;5.60;47.60
3699;DHT22;1865;50.918;7.092;2022-12-10T17:14:44;5.60;47.70
3699;DHT22;1865;50.918;7.092;2022-12-10T17:17:15;5.60;47.10
3699;DHT22;1865;50.918;7.092;2022-12-10T17:19:41;5.60;47.40
3699;DHT22;1865;50.918;7.092;2022-12-10T17:22:09;5.40;48.10
3699;DHT22;1865;50.918;7.092;2022-12-10T17:24:35;5.40;48.50
3699;DHT22;1865;50.918;7.092;2022-12-10T17:27:20;5.40;48.80
3699;DHT22;1865;50.918;7.092;2022-12-10T17:29:46;5.60;48.90
3699;DHT22;1865;50.918;7.092;2022-12-10T17:32:20;5.50;48.50
3699;DHT22;1865;50.918;7.092;2022-12-10T17:34:46;5.40;47.70
3699;DHT22;1865;50.918;7.092;2022-12-10T17:37:13;5.40;47.20
3699;DHT22;1865;50.918;7.092;2022-12-10T17:39:39;5.30;48.20
3699;DHT22;1865;50.918;7.092;2022-12-10T17:42:05;5.40;48.00
3699;DHT22;1865;50.918;7.092;2022-12-10T17:44:36;5.40;48.00
3699;DHT22;1865;50.918;7.092;2022-12-10T17:47:23;5.50;48.50
3699;DHT22;1865;50.918;7.092;2022-12-10T17:49:49;5.50;47.50
3699;DHT22;1865;50.918;7.092;2022-12-10T17:52:14;5.40;48.00
3699;DHT22;1865;50.918;7.092;2022-12-10T17:54:40;5.40;47.70
3699;DHT22;1865;50.918;7.092;2022-12-10T17:57:13;5.40;47.60
3699;DHT22;1865;50.918;7.092;2022-12-10T17:59:39;5.60;47.80
3699;DHT22;1865;50.918;7.092;2022-12-10T18:02:08;5.70;48.50
3699;DHT22;1865;50.918;7.092;2022-12-10T18:04:35;5.50;48.10
3699;DHT22;1865;50.918;7.092;2022-12-10T18:07:00;5.80;47.80
3699;DHT22;1865;50.918;7.092;2022-12-10T18:09:26;5.50;47.70